< < Back
Terminal Aerodrome Forecast


Current Version              Previous Versions:   1  2  3  4  5  6  7  8  9  

Terminal Aerodrome Forecast

815
FTUS42 KJAX 132323
TAFSSI
TAF
KSSI 132323Z 1400/1424 04004KT P6SM SKC
     FM141100 04010KT P6SM FEW250
     FM141400 05014G21KT P6SM SCT030 BKN250
     FM141900 06014G21KT P6SM BKN035 BKN250
     FM142300 06012KT P6SM OVC030=

Latest METAR

039
SAUS70 KWBC 141700 RRJ
MTRSSI
METAR KSSI 141653Z AUTO 03016G23KT 10SM OVC017 09/05 A3039 RMK AO2 PK
WND 03026/1608 SLP293 T00940050


USA.gov is the U.S. government's official web portal to all federal, state and local government web resources and services.